»·PEaware :: N350PB KVNY-KSNA

N350PB :: KVNY-KSNA

FLIGHT INFORMATION

Flight Status: Arrived
Operator: Privately registered:
United States
More flights under this callsign
Pilot: John H. (3957)
Aircraft: BEECH AIRCRAFT A90-E90 KING AIR
(BE9L)
More flights by this aircraft type
Origin: KVNY Van Nuys
United States
Destination: KSNA John Wayne-Orange Co
United States
More flights between these airports :: More routes between these airports
Route: TWINE V518 KIMMO V459 SLI
File this flight plan on PilotEdge
Remarks: TEC route BURP21
Altitude:
(Current/Filed)
9,000ft
Speed:
(Current/Filed)
245kts
Departed: 04-Dec-19 03:54 PM
Arrived: 04-Dec-19 04:34 PM
Distance/Time
Traveled:
44nm/0:40
Distance/Time
To Go:
Arrived

Flight Plot

Page will automatically refresh every two minutes.


Map Options




Map Legend


Flown Route
Filed Route
Departure Airport
Arrival Airport
Navaid (VOR, NDB)
Fix

Horizontal Profiles

Position Reports

Time Latitude Longitude Heading Altitude Ground
Speed
04-Dec-19 15:41 34.194276 -118.490623 0 744ft 0kts
04-Dec-19 15:42 34.194276 -118.490623 0 744ft 0kts
04-Dec-19 15:43 34.194276 -118.490623 0 744ft 0kts
04-Dec-19 15:44 34.194276 -118.490623 0 744ft 0kts
04-Dec-19 15:45 34.194276 -118.490623 0 744ft 0kts
04-Dec-19 15:46 34.194930 -118.490231 22 745ft 7kts
04-Dec-19 15:47 34.196791 -118.490235 7 748ft 7kts
04-Dec-19 15:48 34.199976 -118.490270 354 754ft 14kts
04-Dec-19 15:49 34.203746 -118.490997 353 762ft 9kts
04-Dec-19 15:50 34.206919 -118.491289 355 771ft 12kts
04-Dec-19 15:51 34.210105 -118.491368 76 778ft 0kts
04-Dec-19 15:52 34.210125 -118.491277 77 778ft 5kts
04-Dec-19 15:53 34.205684 -118.489998 174 767ft 84kts
04-Dec-19 15:54 34.177240 -118.483341 128 2247ft 102kts
04-Dec-19 15:55 34.162172 -118.449164 121 3833ft 127kts
04-Dec-19 15:56 34.157412 -118.399342 39 3993ft 207kts
04-Dec-19 15:57 34.214247 -118.404629 351 4882ft 196kts
04-Dec-19 15:58 34.265781 -118.407966 40 5981ft 180kts
04-Dec-19 15:59 34.257538 -118.365938 140 6923ft 143kts
04-Dec-19 16:00 34.231511 -118.329119 139 7865ft 143kts
04-Dec-19 16:01 34.203560 -118.295485 146 8749ft 141kts
04-Dec-19 16:02 34.166551 -118.274929 160 8993ft 162kts
04-Dec-19 16:03 34.124557 -118.251105 158 8991ft 171kts
04-Dec-19 16:04 34.080871 -118.225949 163 8985ft 188kts
04-Dec-19 16:05 34.033118 -118.198254 163 8982ft 199kts
04-Dec-19 16:06 33.984554 -118.170184 162 8980ft 195kts
04-Dec-19 16:07 33.943379 -118.146455 162 8979ft 189kts
04-Dec-19 16:08 33.911494 -118.128088 161 8830ft 180kts
04-Dec-19 16:09 33.888448 -118.114852 161 8214ft 170kts
04-Dec-19 16:10 33.866076 -118.098974 129 7519ft 177kts
04-Dec-19 16:11 33.869278 -118.061592 82 6723ft 193kts
04-Dec-19 16:12 33.876013 -118.031208 82 6064ft 189kts
04-Dec-19 16:13 33.882469 -118.001522 82 5412ft 186kts
04-Dec-19 16:14 33.888912 -117.971181 82 4733ft 181kts
04-Dec-19 16:15 33.895337 -117.939998 82 4024ft 177kts
04-Dec-19 16:16 33.901903 -117.907230 82 3411ft 156kts
04-Dec-19 16:17 33.908861 -117.873293 82 2980ft 147kts
04-Dec-19 16:18 33.915495 -117.840965 82 2966ft 141kts
04-Dec-19 16:19 33.920499 -117.816719 82 2969ft 137kts
04-Dec-19 16:20 33.922184 -117.792714 110 2975ft 127kts
04-Dec-19 16:21 33.916772 -117.772218 110 2975ft 129kts
04-Dec-19 16:22 33.900545 -117.759147 180 2979ft 133kts
04-Dec-19 16:23 33.880349 -117.761399 181 2971ft 128kts
04-Dec-19 16:24 33.862884 -117.763615 181 2974ft 110kts
04-Dec-19 16:25 33.845498 -117.766365 188 2976ft 115kts
04-Dec-19 16:26 33.828066 -117.773634 197 2974ft 117kts
04-Dec-19 16:27 33.810050 -117.783866 201 2863ft 124kts
04-Dec-19 16:28 33.780436 -117.802389 202 2255ft 109kts
04-Dec-19 16:29 33.753897 -117.819213 203 1692ft 111kts
04-Dec-19 16:30 33.727983 -117.835692 204 1133ft 105kts
04-Dec-19 16:31 33.703612 -117.851148 204 581ft 99kts
04-Dec-19 16:32 33.679923 -117.866149 203 94ft 99kts
04-Dec-19 16:33 33.674257 -117.870931 298 59ft 4kts
04-Dec-19 16:34 33.674127 -117.872109 109 59ft 0kts

Navigation Log

Ident Type
Flight plan parsing failed, navigation log unavailable